Time;durP1;ratioP1;P1;durP2;ratioP2;P2;SDS_P1;SDS_P2;PMS_P1;PMS_P2;Temp;Humidity;BMP_temperature;BMP_pressure;BME280_temperature;BME280_humidity;BME280_pressure;Samples;Min_cycle;Max_cycle;Signal;HPM_P1;HPM_P2
2023/08/20 00:00:14;;;;;;;6.50;3.03;;;;;;;18.45;100.00;101912.81;5280337;28;20023;-68
2023/08/20 00:02:46;;;;;;;8.38;3.60;;;;;;;18.40;100.00;101913.25;5290454;28;20406;-68
2023/08/20 00:05:19;;;;;;;8.90;4.40;;;;;;;18.37;100.00;101925.22;5294556;28;20122;-68
2023/08/20 00:07:50;;;;;;;12.30;6.05;;;;;;;18.28;100.00;101912.56;5288606;28;20029;-68
2023/08/20 00:10:21;;;;;;;11.68;6.00;;;;;;;18.26;100.00;101909.13;5294185;28;20025;-68
2023/08/20 00:12:53;;;;;;;13.52;5.95;;;;;;;18.29;100.00;101913.41;5289679;28;20120;-68
2023/08/20 00:15:27;;;;;;;13.15;5.13;;;;;;;18.16;100.00;101914.53;5295831;28;20131;-68
2023/08/20 00:17:58;;;;;;;8.65;4.45;;;;;;;18.20;100.00;101899.75;5291186;28;20077;-68
2023/08/20 00:20:30;;;;;;;10.00;4.78;;;;;;;18.26;100.00;101902.88;5282838;28;20406;-68
2023/08/20 00:23:02;;;;;;;9.93;4.53;;;;;;;18.17;100.00;101897.31;5286108;28;20853;-68
2023/08/20 00:25:34;;;;;;;11.15;4.45;;;;;;;18.15;100.00;101904.72;5289085;28;20032;-68
2023/08/20 00:28:05;;;;;;;7.03;3.70;;;;;;;18.10;100.00;101904.31;5290129;28;20038;-68
2023/08/20 00:30:37;;;;;;;8.70;3.97;;;;;;;18.00;100.00;101906.97;5286897;28;20035;-68
2023/08/20 00:33:08;;;;;;;9.82;4.88;;;;;;;18.07;100.00;101915.38;5285032;28;20021;-68
2023/08/20 00:35:40;;;;;;;9.73;4.53;;;;;;;17.92;100.00;101917.63;5284526;28;20409;-68
2023/08/20 00:38:11;;;;;;;9.10;4.32;;;;;;;17.96;100.00;101924.44;5283574;28;20029;-68
2023/08/20 00:40:42;;;;;;;11.82;5.05;;;;;;;17.90;100.00;101930.41;5284938;28;20496;-68
2023/08/20 00:43:14;;;;;;;8.88;3.90;;;;;;;17.93;100.00;101934.66;5283599;28;20501;-68
2023/08/20 00:45:45;;;;;;;9.63;3.92;;;;;;;17.94;100.00;101941.78;5287484;28;20028;-68
2023/08/20 00:48:17;;;;;;;10.77;4.28;;;;;;;18.07;100.00;101947.78;5285735;28;20477;-68
2023/08/20 00:50:49;;;;;;;10.20;4.20;;;;;;;17.95;100.00;101951.59;5284699;28;20081;-68
2023/08/20 00:53:20;;;;;;;8.32;3.42;;;;;;;18.04;100.00;101953.44;5290427;28;20113;-68
2023/08/20 00:55:52;;;;;;;10.52;3.53;;;;;;;18.07;100.00;101950.50;5285536;28;20024;-68
2023/08/20 00:58:23;;;;;;;10.02;3.40;;;;;;;18.15;100.00;101957.88;5289742;28;20385;-68
2023/08/20 01:00:55;;;;;;;6.63;3.00;;;;;;;18.24;100.00;101959.75;5285190;28;20126;-68
2023/08/20 01:03:26;;;;;;;5.95;3.10;;;;;;;18.28;100.00;101963.88;5290366;28;20024;-68
2023/08/20 01:06:17;;;;;;;7.80;3.33;;;;;;;18.26;100.00;101983.94;5292143;28;20107;-68
2023/08/20 01:08:57;;;;;;;7.63;3.28;;;;;;;18.38;100.00;101986.34;5287246;28;20028;-68
2023/08/20 01:11:37;;;;;;;6.57;3.53;;;;;;;18.41;100.00;101993.34;5289058;28;20166;-68
2023/08/20 01:14:18;;;;;;;6.57;3.30;;;;;;;18.41;100.00;101996.03;5286902;28;20402;-68
2023/08/20 01:16:49;;;;;;;8.65;3.15;;;;;;;18.42;100.00;102003.13;5292118;28;20051;-68
2023/08/20 01:19:22;;;;;;;9.43;3.50;;;;;;;18.41;100.00;101994.19;5287571;28;20135;-68
2023/08/20 01:22:12;;;;;;;10.87;3.30;;;;;;;18.37;100.00;101984.66;5283215;28;20039;-68
2023/08/20 01:25:02;;;;;;;6.63;2.80;;;;;;;18.31;100.00;101974.38;5288213;28;20658;-68
2023/08/20 01:28:28;;;;;;;9.75;3.22;;;;;;;18.39;100.00;101974.56;5288220;28;20031;-69
2023/08/20 01:31:00;;;;;;;9.30;3.10;;;;;;;18.37;100.00;101970.28;5238124;28;20025;-68
2023/08/20 01:33:32;;;;;;;7.22;3.03;;;;;;;18.40;100.00;101978.97;5279291;28;20046;-68
2023/08/20 01:36:09;;;;;;;6.95;2.80;;;;;;;18.43;100.00;101980.53;5282069;28;20394;-68
2023/08/20 01:38:41;;;;;;;8.45;2.90;;;;;;;18.34;100.00;101975.97;5288964;28;20031;-68
2023/08/20 01:41:12;;;;;;;7.05;3.00;;;;;;;18.50;100.00;101972.72;5294544;28;20026;-69
2023/08/20 01:43:44;;;;;;;7.57;3.10;;;;;;;18.57;100.00;101973.84;5282382;28;20032;-68
2023/08/20 01:46:15;;;;;;;8.98;3.20;;;;;;;18.54;100.00;101968.72;5291046;28;20100;-68
2023/08/20 01:48:46;;;;;;;10.57;3.63;;;;;;;18.45;100.00;101981.25;5284876;28;20446;-69
2023/08/20 01:51:18;;;;;;;9.05;3.00;;;;;;;18.48;100.00;101974.69;5282933;28;20109;-69
2023/08/20 01:53:49;;;;;;;7.05;3.47;;;;;;;18.54;100.00;101976.84;5283193;28;20028;-68
2023/08/20 01:56:21;;;;;;;9.82;3.17;;;;;;;18.62;100.00;101985.09;5289709;28;20519;-68
2023/08/20 01:58:52;;;;;;;9.30;3.83;;;;;;;18.60;100.00;101987.94;5287396;28;20081;-69
2023/08/20 02:01:24;;;;;;;9.85;3.30;;;;;;;18.61;100.00;101992.34;5293366;28;20563;-69
2023/08/20 02:03:55;;;;;;;7.72;3.00;;;;;;;18.73;100.00;102000.31;5301497;28;20066;-69
2023/08/20 02:06:27;;;;;;;8.57;3.10;;;;;;;18.71;100.00;101997.75;5288252;28;20488;-68
2023/08/20 02:08:58;;;;;;;7.82;3.00;;;;;;;18.71;100.00;102002.31;5290332;28;20100;-68
2023/08/20 02:11:32;;;;;;;7.15;3.00;;;;;;;18.72;100.00;102001.31;5288616;28;20769;-69
2023/08/20 02:14:04;;;;;;;9.38;3.25;;;;;;;18.79;100.00;102005.13;5292830;28;20052;-69
2023/08/20 02:16:36;;;;;;;8.68;3.00;;;;;;;18.82;100.00;102004.06;5290890;28;21338;-69
2023/08/20 02:19:08;;;;;;;8.80;2.92;;;;;;;18.78;100.00;102006.16;5281161;28;20532;-69
2023/08/20 02:21:40;;;;;;;10.02;3.00;;;;;;;18.80;100.00;102006.91;5291539;28;20036;-68
2023/08/20 02:24:11;;;;;;;6.63;2.70;;;;;;;18.74;100.00;102005.59;5284388;28;20035;-69
2023/08/20 02:26:43;;;;;;;8.13;3.03;;;;;;;18.79;100.00;102007.84;5283157;28;20063;-68
2023/08/20 02:29:14;;;;;;;7.55;2.80;;;;;;;18.72;100.00;102010.28;5278608;28;20035;-69
2023/08/20 02:31:46;;;;;;;8.30;3.30;;;;;;;18.71;100.00;102002.31;5281403;28;20054;-68
2023/08/20 02:34:17;;;;;;;6.82;2.88;;;;;;;18.68;100.00;102002.56;5280686;28;21703;-69
2023/08/20 02:36:48;;;;;;;6.47;2.80;;;;;;;18.76;100.00;101997.34;5283785;28;20040;-68
2023/08/20 02:39:20;;;;;;;6.05;2.85;;;;;;;18.85;100.00;101993.81;5281734;28;20024;-68
2023/08/20 02:41:51;;;;;;;7.72;2.97;;;;;;;18.72;100.00;101995.91;5283559;28;20482;-69
2023/08/20 02:44:23;;;;;;;8.40;3.15;;;;;;;18.60;100.00;102001.47;5280382;28;20024;-68
2023/08/20 02:46:54;;;;;;;9.45;2.90;;;;;;;18.73;100.00;101994.91;5280527;28;21501;-68
2023/08/20 02:49:26;;;;;;;10.35;3.13;;;;;;;18.57;100.00;101988.22;5283065;28;20077;-68
2023/08/20 02:51:57;;;;;;;6.68;2.58;;;;;;;18.60;100.00;101990.66;5280446;28;20016;-69
2023/08/20 02:54:31;;;;;;;9.63;3.00;;;;;;;18.43;100.00;101999.47;5282724;28;20032;-69
2023/08/20 02:57:03;;;;;;;8.27;3.08;;;;;;;18.36;100.00;101990.19;5285201;28;20039;-68
2023/08/20 02:59:34;;;;;;;7.05;3.17;;;;;;;18.42;100.00;101990.47;5279724;28;20020;-69
2023/08/20 03:02:05;;;;;;;6.55;2.70;;;;;;;18.44;100.00;101990.34;5279550;28;20079;-68
2023/08/20 03:04:37;;;;;;;8.07;3.00;;;;;;;18.30;100.00;101988.06;5280088;28;20031;-69
2023/08/20 03:07:08;;;;;;;6.63;2.63;;;;;;;18.36;100.00;101987.50;5287374;28;20039;-69
2023/08/20 03:09:40;;;;;;;9.38;3.25;;;;;;;18.22;100.00;101986.06;5281151;28;20024;-69
2023/08/20 03:12:11;;;;;;;6.78;2.55;;;;;;;18.18;100.00;101982.78;5285786;28;20028;-69
2023/08/20 03:14:43;;;;;;;7.45;2.92;;;;;;;18.10;100.00;101985.34;5293780;28;20431;-69
2023/08/20 03:17:14;;;;;;;9.02;3.05;;;;;;;18.01;100.00;101988.84;5283552;28;20043;-68
2023/08/20 03:19:59;;;;;;;8.77;3.00;;;;;;;18.11;100.00;101987.03;5275662;28;20036;-68
2023/08/20 03:22:30;;;;;;;6.95;2.95;;;;;;;17.97;100.00;101993.69;5287120;28;20066;-69
2023/08/20 03:25:02;;;;;;;7.85;3.20;;;;;;;17.91;100.00;101990.66;5284813;28;20028;-69
2023/08/20 03:27:34;;;;;;;4.70;2.67;;;;;;;17.87;100.00;101986.53;5278404;28;20023;-69
2023/08/20 03:30:06;;;;;;;6.55;3.03;;;;;;;17.94;100.00;101985.84;5283028;28;20050;-69
2023/08/20 03:32:38;;;;;;;9.00;3.08;;;;;;;17.70;100.00;101991.56;5280143;28;20414;-69
2023/08/20 03:35:10;;;;;;;8.07;3.15;;;;;;;17.79;100.00;101990.72;5291756;28;20469;-68
2023/08/20 03:37:41;;;;;;;6.43;3.03;;;;;;;17.80;100.00;101987.06;5285548;28;20036;-69
2023/08/20 03:40:12;;;;;;;7.30;3.13;;;;;;;17.69;100.00;101983.59;5288368;28;20205;-69
2023/08/20 03:42:44;;;;;;;10.05;3.83;;;;;;;17.73;100.00;101983.19;5293215;28;20032;-68
2023/08/20 03:45:15;;;;;;;8.07;3.63;;;;;;;17.64;100.00;101982.16;5276733;28;20481;-69
2023/08/20 03:47:47;;;;;;;8.45;3.60;;;;;;;17.69;100.00;101984.44;5282587;28;20071;-68
2023/08/20 03:50:18;;;;;;;6.18;3.38;;;;;;;17.52;100.00;101988.63;5295534;28;20051;-69
2023/08/20 03:52:49;;;;;;;6.85;3.30;;;;;;;17.53;100.00;101997.59;5285988;28;20734;-68
2023/08/20 03:55:21;;;;;;;8.55;3.10;;;;;;;17.39;100.00;101999.66;5278161;28;20027;-68
2023/08/20 03:57:52;;;;;;;9.15;3.45;;;;;;;17.48;100.00;101995.28;5285690;28;20020;-69
2023/08/20 04:00:23;;;;;;;7.18;3.20;;;;;;;17.48;100.00;101994.44;5281085;28;20071;-68
2023/08/20 04:02:55;;;;;;;7.85;3.28;;;;;;;17.44;100.00;101997.41;5294512;28;20055;-69
2023/08/20 04:05:26;;;;;;;6.47;3.25;;;;;;;17.24;100.00;102009.09;5280775;28;20035;-68
2023/08/20 04:07:58;;;;;;;8.20;3.25;;;;;;;17.33;100.00;102016.34;5287425;28;20056;-69
2023/08/20 04:10:29;;;;;;;7.55;3.30;;;;;;;17.41;100.00;102013.88;5278516;28;20505;-68
2023/08/20 04:13:01;;;;;;;6.32;3.00;;;;;;;17.34;100.00;102025.34;5285570;28;20036;-68
2023/08/20 04:15:32;;;;;;;7.00;3.47;;;;;;;17.17;100.00;102022.22;5276665;28;20039;-69
2023/08/20 04:18:04;;;;;;;6.65;3.20;;;;;;;17.31;100.00;102023.72;5283234;28;20035;-68
2023/08/20 04:20:36;;;;;;;5.53;3.58;;;;;;;17.18;100.00;102023.97;5282222;28;20031;-69
2023/08/20 04:23:07;;;;;;;7.10;3.70;;;;;;;17.22;100.00;102020.00;5278290;28;20025;-69
2023/08/20 04:25:40;;;;;;;7.65;3.67;;;;;;;17.22;100.00;102017.31;5287766;28;20031;-68
2023/08/20 04:28:12;;;;;;;9.38;3.63;;;;;;;17.14;100.00;102030.56;5278999;28;20028;-69
2023/08/20 04:30:44;;;;;;;5.68;3.38;;;;;;;17.10;100.00;102031.81;5283509;28;20028;-68
2023/08/20 04:33:15;;;;;;;7.43;4.00;;;;;;;17.11;100.00;102022.75;5279460;28;20215;-68
2023/08/20 04:35:50;;;;;;;8.68;3.97;;;;;;;17.13;100.00;102025.34;5281911;28;20469;-69
2023/08/20 04:38:22;;;;;;;7.45;3.70;;;;;;;17.10;100.00;102030.97;5282481;28;20028;-69
2023/08/20 04:40:53;;;;;;;8.27;3.70;;;;;;;17.11;100.00;102032.72;5276677;28;20032;-69
2023/08/20 04:43:24;;;;;;;6.47;3.70;;;;;;;17.11;100.00;102033.56;5282748;28;20094;-69
2023/08/20 04:45:56;;;;;;;8.80;4.07;;;;;;;16.94;100.00;102029.59;5284203;28;20402;-68
2023/08/20 04:48:27;;;;;;;8.77;4.07;;;;;;;16.97;100.00;102026.66;5286445;28;20043;-68
2023/08/20 04:51:00;;;;;;;9.05;3.92;;;;;;;17.09;100.00;102034.69;5280776;28;20032;-69
2023/08/20 04:53:31;;;;;;;6.80;3.63;;;;;;;16.93;100.00;102038.69;5286702;28;20038;-69
2023/08/20 04:56:03;;;;;;;8.00;3.90;;;;;;;16.92;100.00;102034.25;5283522;28;20032;-69
2023/08/20 04:58:34;;;;;;;7.07;3.72;;;;;;;16.89;100.00;102036.34;5285961;28;20435;-68
2023/08/20 05:01:06;;;;;;;8.18;4.20;;;;;;;16.88;100.00;102040.91;5279585;28;20040;-68
2023/08/20 05:03:37;;;;;;;7.07;3.50;;;;;;;16.96;100.00;102041.09;5283989;28;20024;-68
2023/08/20 05:06:09;;;;;;;9.73;4.03;;;;;;;17.01;100.00;102046.13;5284153;28;20036;-68
2023/08/20 05:08:40;;;;;;;7.93;4.03;;;;;;;16.95;100.00;102038.53;5282687;28;20024;-68
2023/08/20 05:11:12;;;;;;;6.22;4.30;;;;;;;16.93;100.00;102040.50;5284529;28;20111;-68
2023/08/20 05:13:45;;;;;;;9.55;4.30;;;;;;;16.91;100.00;102043.31;5281315;28;20028;-69
2023/08/20 05:16:16;;;;;;;8.40;4.80;;;;;;;17.02;100.00;102051.34;5281000;28;20027;-68
2023/08/20 05:18:48;;;;;;;8.50;5.32;;;;;;;17.09;100.00;102054.41;5281212;28;20294;-68
2023/08/20 05:21:19;;;;;;;7.72;4.60;;;;;;;17.02;100.00;102054.06;5284527;28;20700;-68
2023/08/20 05:23:50;;;;;;;6.53;4.35;;;;;;;17.02;100.00;102053.19;5288035;28;20028;-68
2023/08/20 05:26:22;;;;;;;10.75;5.30;;;;;;;17.00;100.00;102066.81;5282591;28;20074;-69
2023/08/20 05:28:53;;;;;;;7.75;4.72;;;;;;;17.09;100.00;102061.66;5281998;28;20037;-69
2023/08/20 05:31:25;;;;;;;9.40;5.38;;;;;;;17.04;100.00;102070.94;5282601;28;20036;-68
2023/08/20 05:33:56;;;;;;;12.25;5.80;;;;;;;17.01;100.00;102063.16;5284375;28;20424;-68
2023/08/20 05:36:27;;;;;;;11.35;5.90;;;;;;;17.10;100.00;102057.94;5287783;28;20039;-68
2023/08/20 05:38:59;;;;;;;10.57;6.25;;;;;;;17.05;100.00;102066.44;5285915;28;20476;-68
2023/08/20 05:41:30;;;;;;;11.45;6.20;;;;;;;17.02;100.00;102061.28;5280827;28;20025;-68
2023/08/20 05:44:02;;;;;;;9.75;6.13;;;;;;;17.03;100.00;102063.03;5279105;28;20031;-68
2023/08/20 05:46:33;;;;;;;9.90;6.50;;;;;;;17.00;100.00;102068.66;5283041;28;20555;-69
2023/08/20 05:49:05;;;;;;;11.07;6.78;;;;;;;17.08;100.00;102071.56;5280664;28;20027;-69
2023/08/20 05:51:36;;;;;;;10.95;6.75;;;;;;;17.05;100.00;102067.28;5283286;28;20035;-69
2023/08/20 05:54:07;;;;;;;11.38;6.80;;;;;;;17.03;100.00;102073.81;5281211;28;20024;-69
2023/08/20 05:56:39;;;;;;;12.55;7.05;;;;;;;17.09;100.00;102073.28;5281336;28;20034;-69
2023/08/20 05:59:10;;;;;;;10.40;6.72;;;;;;;17.11;100.00;102071.31;5280714;28;20036;-69
2023/08/20 06:01:43;;;;;;;10.05;6.68;;;;;;;17.11;100.00;102065.06;5281623;28;20532;-68
2023/08/20 06:04:14;;;;;;;10.20;6.30;;;;;;;17.02;100.00;102067.53;5283943;28;20024;-68
2023/08/20 06:06:46;;;;;;;12.32;6.68;;;;;;;17.22;100.00;102062.28;5284159;28;20043;-69
2023/08/20 06:09:17;;;;;;;9.90;6.57;;;;;;;17.08;100.00;102055.38;5285576;28;20279;-69
2023/08/20 06:11:49;;;;;;;10.88;6.45;;;;;;;17.08;100.00;102062.63;5281612;28;21421;-70
2023/08/20 06:14:20;;;;;;;9.30;5.60;;;;;;;17.01;100.00;102059.59;5285833;28;20502;-69
2023/08/20 06:16:52;;;;;;;11.68;6.50;;;;;;;17.03;100.00;102066.56;5281763;28;20028;-68
2023/08/20 06:19:23;;;;;;;13.10;5.57;;;;;;;17.07;100.00;102071.69;5287662;28;20050;-69
2023/08/20 06:21:55;;;;;;;12.35;6.00;;;;;;;17.04;100.00;102070.94;5284394;28;20670;-69
2023/08/20 06:24:26;;;;;;;11.05;5.60;;;;;;;17.15;100.00;102071.91;5284783;28;20036;-69
2023/08/20 06:26:57;;;;;;;12.40;5.75;;;;;;;17.16;100.00;102073.59;5284568;28;20032;-69
2023/08/20 06:29:29;;;;;;;14.18;5.72;;;;;;;17.22;100.00;102073.06;5278047;28;20062;-69
2023/08/20 06:32:00;;;;;;;10.57;5.82;;;;;;;17.33;100.00;102075.72;5279959;28;20028;-69
2023/08/20 06:34:34;;;;;;;10.43;5.43;;;;;;;17.31;100.00;102079.53;5284270;28;20024;-69
2023/08/20 06:37:05;;;;;;;11.70;5.25;;;;;;;17.32;100.00;102074.00;5282685;28;20033;-69
2023/08/20 06:39:36;;;;;;;9.93;4.80;;;;;;;17.43;100.00;102082.03;5273468;28;20051;-69
2023/08/20 06:42:08;;;;;;;13.55;6.35;;;;;;;17.37;100.00;102076.31;5284503;28;20515;-69
2023/08/20 06:44:39;;;;;;;13.60;6.32;;;;;;;17.42;100.00;102074.94;5291247;28;20025;-69
2023/08/20 06:47:11;;;;;;;14.90;6.43;;;;;;;17.47;100.00;102066.44;5281386;28;20028;-69
2023/08/20 06:49:43;;;;;;;10.13;6.03;;;;;;;17.48;100.00;102080.78;5275995;28;20079;-69
2023/08/20 06:52:14;;;;;;;14.73;6.60;;;;;;;17.69;100.00;102087.03;5279303;28;20829;-69
2023/08/20 06:54:46;;;;;;;14.35;7.75;;;;;;;17.76;100.00;102081.97;5280600;28;21122;-69
2023/08/20 06:57:17;;;;;;;15.68;8.10;;;;;;;17.82;100.00;102076.00;5286239;28;20044;-69
2023/08/20 06:59:48;;;;;;;16.67;8.10;;;;;;;17.85;100.00;102069.50;5279024;28;20589;-69
2023/08/20 07:02:20;;;;;;;13.38;6.90;;;;;;;17.96;100.00;102069.41;5282955;28;20049;-70
2023/08/20 07:04:51;;;;;;;12.60;7.15;;;;;;;18.07;100.00;102074.72;5285331;28;20031;-69
2023/08/20 07:07:23;;;;;;;15.00;6.05;;;;;;;18.19;100.00;102068.22;5293839;28;20485;-69
2023/08/20 07:09:54;;;;;;;11.70;6.28;;;;;;;18.33;100.00;102082.34;5289073;28;20579;-69
2023/08/20 07:12:26;;;;;;;13.95;6.28;;;;;;;18.41;100.00;102075.25;5294276;28;20032;-69
2023/08/20 07:14:57;;;;;;;10.18;5.50;;;;;;;18.50;100.00;102072.72;5289966;28;20742;-69
2023/08/20 07:17:28;;;;;;;11.88;6.43;;;;;;;18.54;100.00;102072.31;5292367;28;20346;-69
2023/08/20 07:20:00;;;;;;;10.10;6.70;;;;;;;18.64;100.00;102072.31;5290931;28;20038;-68
2023/08/20 07:22:31;;;;;;;10.68;6.38;;;;;;;18.71;100.00;102073.44;5290310;28;20074;-69
2023/08/20 07:25:03;;;;;;;12.57;5.53;;;;;;;18.86;100.00;102065.81;5285203;28;20606;-69
2023/08/20 07:27:34;;;;;;;9.77;5.85;;;;;;;18.92;100.00;102067.09;5277440;28;20102;-69
2023/08/20 07:30:07;;;;;;;10.70;5.15;;;;;;;19.05;100.00;102072.22;5285573;28;20535;-69
2023/08/20 07:32:38;;;;;;;11.43;5.90;;;;;;;19.13;100.00;102065.09;5284652;28;20055;-69
2023/08/20 07:35:10;;;;;;;10.68;5.80;;;;;;;19.20;100.00;102070.78;5291363;28;20028;-69
2023/08/20 07:37:41;;;;;;;13.57;5.72;;;;;;;19.32;100.00;102069.63;5287761;28;20501;-69
2023/08/20 07:40:13;;;;;;;11.10;5.40;;;;;;;19.43;100.00;102070.47;5279303;28;20012;-69
2023/08/20 07:42:44;;;;;;;10.80;5.35;;;;;;;19.44;100.00;102075.72;5276409;28;20769;-69
2023/08/20 07:45:16;;;;;;;10.93;6.20;;;;;;;19.59;100.00;102068.84;5287332;28;20505;-69
2023/08/20 07:47:47;;;;;;;13.00;5.40;;;;;;;19.70;100.00;102070.53;5284276;28;20409;-69
2023/08/20 07:50:19;;;;;;;9.23;5.72;;;;;;;19.72;100.00;102076.69;5278923;28;20024;-69
2023/08/20 07:52:50;;;;;;;10.85;5.22;;;;;;;19.84;100.00;102079.22;5284558;28;20374;-69
2023/08/20 07:55:22;;;;;;;9.10;4.85;;;;;;;20.00;100.00;102087.59;5279207;28;20923;-69
2023/08/20 07:57:53;;;;;;;8.95;4.40;;;;;;;19.92;100.00;102085.63;5277631;28;20069;-69
2023/08/20 08:00:24;;;;;;;12.50;5.65;;;;;;;20.01;100.00;102085.72;5281542;28;20081;-69
2023/08/20 08:02:56;;;;;;;8.90;5.80;;;;;;;20.09;100.00;102080.41;5291363;28;20051;-69
2023/08/20 08:05:28;;;;;;;8.77;4.70;;;;;;;20.14;100.00;102076.22;5277243;28;20660;-69
2023/08/20 08:07:59;;;;;;;9.07;5.35;;;;;;;20.23;100.00;102081.75;5281890;28;20024;-69
2023/08/20 08:10:31;;;;;;;8.65;4.22;;;;;;;20.26;100.00;102078.75;5293253;28;20031;-69
2023/08/20 08:13:02;;;;;;;8.98;5.03;;;;;;;20.30;100.00;102082.84;5291754;28;20430;-70
2023/08/20 08:15:34;;;;;;;8.40;3.80;;;;;;;20.23;100.00;102088.03;5280947;28;20020;-70
2023/08/20 08:18:05;;;;;;;8.13;5.28;;;;;;;20.30;100.00;102093.69;5286618;28;20692;-70
2023/08/20 08:20:37;;;;;;;8.50;4.45;;;;;;;20.46;100.00;102088.47;5290224;28;20035;-70
2023/08/20 08:23:08;;;;;;;7.78;4.07;;;;;;;20.41;100.00;102096.22;5290110;28;20028;-70
2023/08/20 08:25:40;;;;;;;9.48;4.60;;;;;;;20.58;100.00;102099.97;5302367;28;20035;-70
2023/08/20 08:28:11;;;;;;;8.40;4.53;;;;;;;20.69;100.00;102088.06;5289246;28;20059;-70
2023/08/20 08:30:43;;;;;;;9.32;4.05;;;;;;;20.67;100.00;102090.94;5293794;28;20036;-70
2023/08/20 08:33:14;;;;;;;6.93;3.20;;;;;;;20.72;100.00;102093.19;5292986;28;20315;-70
2023/08/20 08:35:46;;;;;;;7.30;3.10;;;;;;;20.77;100.00;102085.44;5296439;28;20416;-70
2023/08/20 08:38:17;;;;;;;6.80;2.90;;;;;;;20.76;100.00;102090.00;5294062;28;20088;-70
2023/08/20 08:40:49;;;;;;;7.45;2.88;;;;;;;20.84;100.00;102096.53;5286535;28;20056;-70
2023/08/20 08:43:21;;;;;;;6.47;2.70;;;;;;;20.89;100.00;102089.63;5285360;28;20020;-70
2023/08/20 08:45:55;;;;;;;6.00;2.55;;;;;;;20.95;100.00;102099.00;5291146;28;20142;-70
2023/08/20 08:48:27;;;;;;;5.70;2.78;;;;;;;21.03;100.00;102090.09;5285213;28;20043;-70
2023/08/20 08:50:59;;;;;;;7.70;3.25;;;;;;;21.10;100.00;102102.03;5290941;28;20381;-70
2023/08/20 08:53:32;;;;;;;5.95;2.53;;;;;;;21.18;100.00;102091.25;5286449;28;20064;-70
2023/08/20 08:56:05;;;;;;;4.85;2.00;;;;;;;21.23;100.00;102091.63;5283498;28;20019;-70
2023/08/20 08:58:36;;;;;;;6.90;2.70;;;;;;;21.30;100.00;102103.53;5280434;28;20035;-70
2023/08/20 09:01:08;;;;;;;6.45;3.10;;;;;;;21.29;100.00;102101.84;5285990;28;20517;-70
2023/08/20 09:03:39;;;;;;;5.70;2.80;;;;;;;21.40;100.00;102103.47;5281608;28;20030;-70
2023/08/20 09:06:11;;;;;;;4.68;2.22;;;;;;;21.62;100.00;102102.13;5286740;28;20543;-70
2023/08/20 09:08:42;;;;;;;5.78;2.42;;;;;;;21.61;100.00;102105.88;5297613;28;20383;-69
2023/08/20 09:11:14;;;;;;;5.72;1.98;;;;;;;21.77;100.00;102104.28;5297446;28;20024;-70
2023/08/20 09:13:45;;;;;;;5.95;2.03;;;;;;;21.77;100.00;102096.97;5283123;28;20027;-69
2023/08/20 09:16:16;;;;;;;4.18;1.48;;;;;;;21.82;100.00;102107.34;5286469;28;20024;-70
2023/08/20 09:18:48;;;;;;;5.97;2.13;;;;;;;21.90;100.00;102104.69;5281179;28;20453;-70
2023/08/20 09:21:29;;;;;;;4.43;1.60;;;;;;;21.92;100.00;102098.06;5296828;28;20021;-70
2023/08/20 09:24:02;;;;;;;5.55;1.33;;;;;;;22.02;100.00;102108.81;5286548;28;20039;-70
2023/08/20 09:26:33;;;;;;;5.53;1.50;;;;;;;21.95;100.00;102101.47;5290009;28;20032;-70
2023/08/20 09:29:05;;;;;;;3.40;1.13;;;;;;;22.03;100.00;102096.06;5293441;28;20033;-70
2023/08/20 09:31:38;;;;;;;3.28;1.15;;;;;;;22.02;100.00;102103.38;5298032;28;20043;-70
2023/08/20 09:34:12;;;;;;;4.75;1.10;;;;;;;22.20;100.00;102106.00;5298447;28;20525;-70
2023/08/20 09:36:44;;;;;;;3.55;1.33;;;;;;;22.32;100.00;102098.44;5287202;28;20371;-70
2023/08/20 09:39:15;;;;;;;3.47;0.77;;;;;;;22.34;100.00;102107.31;5294417;28;20080;-70
2023/08/20 09:41:49;;;;;;;4.30;1.15;;;;;;;22.47;100.00;102102.22;5290162;28;20458;-70
2023/08/20 09:44:21;;;;;;;4.13;1.38;;;;;;;22.69;100.00;102106.22;5284240;28;20028;-70
2023/08/20 09:46:53;;;;;;;4.45;1.08;;;;;;;22.79;100.00;102103.34;5290013;28;20032;-70
2023/08/20 09:49:30;;;;;;;2.90;0.60;;;;;;;22.75;100.00;102096.53;5277816;28;20073;-70
2023/08/20 09:52:16;;;;;;;3.83;0.90;;;;;;;22.95;100.00;102098.94;5288688;28;20629;-70
2023/08/20 09:54:47;;;;;;;4.38;0.90;;;;;;;23.05;100.00;102099.63;5288467;28;20583;-70
2023/08/20 09:57:39;;;;;;;3.65;0.90;;;;;;;23.08;100.00;102097.44;5294720;28;20036;-70
2023/08/20 10:00:12;;;;;;;1.55;0.50;;;;;;;23.02;100.00;102102.69;5286142;28;20035;-70
2023/08/20 10:02:44;;;;;;;2.63;0.60;;;;;;;23.09;100.00;102106.47;5290171;28;20048;-70
2023/08/20 10:05:15;;;;;;;2.65;0.60;;;;;;;23.05;100.00;102099.63;5280071;28;20021;-71
2023/08/20 10:07:47;;;;;;;3.53;0.85;;;;;;;23.08;100.00;102093.88;5287361;28;20354;-70
2023/08/20 10:10:21;;;;;;;3.17;0.63;;;;;;;23.14;100.00;102093.19;5286409;28;20044;-70
2023/08/20 10:12:53;;;;;;;2.22;0.68;;;;;;;23.12;100.00;102095.22;5298657;28;20025;-70
2023/08/20 10:15:27;;;;;;;2.17;0.55;;;;;;;23.19;100.00;102098.13;5279258;28;20546;-70
2023/08/20 10:18:00;;;;;;;2.92;0.40;;;;;;;23.20;100.00;102106.09;5278866;28;20024;-70
2023/08/20 10:20:32;;;;;;;2.88;0.60;;;;;;;23.31;100.00;102104.09;5303219;28;20482;-70
2023/08/20 10:23:04;;;;;;;3.40;0.80;;;;;;;23.36;100.00;102101.72;5289952;28;20028;-70
2023/08/20 10:25:42;;;;;;;3.03;0.65;;;;;;;23.28;100.00;102095.25;5285372;28;20028;-70
2023/08/20 10:28:22;;;;;;;2.83;0.40;;;;;;;23.36;100.00;102101.72;5286258;28;20031;-70
2023/08/20 10:31:11;;;;;;;2.95;0.77;;;;;;;23.53;100.00;102100.66;5287062;28;20025;-70
2023/08/20 10:33:56;;;;;;;2.35;0.60;;;;;;;23.57;100.00;102093.84;5287083;28;20032;-70
2023/08/20 10:36:28;;;;;;;3.03;0.60;;;;;;;23.64;100.00;102088.53;5288392;28;20496;-70
2023/08/20 10:39:05;;;;;;;3.05;0.50;;;;;;;23.67;100.00;102094.50;5288454;28;20036;-71
2023/08/20 10:41:36;;;;;;;2.38;0.50;;;;;;;23.84;100.00;102099.94;5289677;28;20036;-70
2023/08/20 10:44:08;;;;;;;2.38;0.43;;;;;;;24.04;100.00;102098.50;5284977;28;20030;-71
2023/08/20 10:46:50;;;;;;;3.40;0.75;;;;;;;23.94;100.00;102099.75;5293903;28;20385;-70
2023/08/20 10:49:22;;;;;;;3.35;0.65;;;;;;;23.86;100.00;102095.19;5290424;28;20055;-70
2023/08/20 10:51:56;;;;;;;1.95;0.40;;;;;;;24.01;100.00;102095.28;5293252;28;20054;-71
2023/08/20 10:54:28;;;;;;;4.05;0.95;;;;;;;23.96;100.00;102100.44;5289817;28;20027;-71
2023/08/20 10:56:59;;;;;;;3.35;0.63;;;;;;;24.11;100.00;102095.09;5291593;28;20777;-70
2023/08/20 10:59:31;;;;;;;3.13;0.68;;;;;;;24.05;100.00;102102.94;5294863;28;20088;-71
2023/08/20 11:02:03;;;;;;;3.03;0.73;;;;;;;24.16;100.00;102103.56;5290224;28;20436;-70
2023/08/20 11:04:34;;;;;;;2.72;0.60;;;;;;;24.18;100.00;102104.25;5284004;28;20036;-70
2023/08/20 11:07:06;;;;;;;3.40;0.60;;;;;;;24.24;100.00;102096.22;5287902;28;20124;-70
2023/08/20 11:09:39;;;;;;;2.35;0.60;;;;;;;24.46;100.00;102097.28;5290450;28;20512;-70
2023/08/20 11:12:11;;;;;;;3.85;0.80;;;;;;;24.52;100.00;102089.47;5280592;28;20404;-71
2023/08/20 11:14:42;;;;;;;3.50;0.82;;;;;;;24.59;100.00;102088.56;5287624;28;20036;-70
2023/08/20 11:17:14;;;;;;;3.47;0.80;;;;;;;24.60;100.00;102094.88;5282721;28;20431;-70
2023/08/20 11:19:45;;;;;;;4.05;0.85;;;;;;;24.81;100.00;102095.09;5294167;28;20024;-71
2023/08/20 11:22:18;;;;;;;4.20;0.70;;;;;;;24.71;100.00;102086.25;5283406;28;20071;-70
2023/08/20 11:24:50;;;;;;;3.17;0.60;;;;;;;24.74;100.00;102087.78;5293512;28;20024;-71
2023/08/20 11:27:26;;;;;;;4.05;0.90;;;;;;;24.73;100.00;102088.81;5291213;28;20112;-71
2023/08/20 11:29:58;;;;;;;2.65;0.63;;;;;;;24.82;100.00;102083.13;5289893;28;20036;-70
2023/08/20 11:32:30;;;;;;;3.55;0.70;;;;;;;24.69;100.00;102082.88;5289562;28;20088;-71
2023/08/20 11:35:05;;;;;;;3.67;1.08;;;;;;;24.80;100.00;102085.19;5289033;28;20486;-71
2023/08/20 11:37:37;;;;;;;2.55;0.50;;;;;;;24.88;100.00;102091.63;5285141;28;20040;-70